createdAt,value
2023-07-25T00:05:17.236Z,16.43
2023-07-25T00:35:20.173Z,16.20
2023-07-25T01:05:23.791Z,16.13
2023-07-25T01:35:26.759Z,15.96
2023-07-25T02:05:30.583Z,15.72
2023-07-25T02:35:33.621Z,15.44
2023-07-25T03:05:37.747Z,15.26
2023-07-25T03:35:40.732Z,15.21
2023-07-25T04:05:44.572Z,15.33
2023-07-25T04:35:48.488Z,15.48
2023-07-25T05:05:51.745Z,15.79
2023-07-25T05:35:54.744Z,16.09
2023-07-25T06:05:58.132Z,16.31
2023-07-25T06:36:01.088Z,16.48
2023-07-25T07:06:04.551Z,16.58
2023-07-25T07:36:07.514Z,16.66
2023-07-25T08:06:13.283Z,17.13
2023-07-25T08:36:16.386Z,17.65
2023-07-25T09:06:19.906Z,17.97
2023-07-25T09:36:22.878Z,19.23
2023-07-25T10:06:26.391Z,19.69
2023-07-25T10:36:29.384Z,20.40
2023-07-25T11:06:33.411Z,20.41
2023-07-25T11:36:36.381Z,20.51
2023-07-25T12:06:41.045Z,20.61
2023-07-25T12:36:44.133Z,20.58
2023-07-25T13:06:47.604Z,21.10
2023-07-25T13:36:50.581Z,22.06
2023-07-25T14:06:54.494Z,22.08
2023-07-25T14:36:57.467Z,22.04
2023-07-25T15:07:01.143Z,21.69
2023-07-25T15:37:04.410Z,21.13
2023-07-25T16:07:08.096Z,20.28
2023-07-25T16:37:11.074Z,20.35
2023-07-25T17:07:14.198Z,19.97
2023-07-25T17:37:17.854Z,19.51
2023-07-25T18:07:21.098Z,18.55
2023-07-25T18:37:24.568Z,17.49
2023-07-25T19:07:27.613Z,16.47
2023-07-25T19:37:31.112Z,15.91
2023-07-25T20:07:34.521Z,15.63
2023-07-25T20:37:37.439Z,15.76
2023-07-25T21:07:40.954Z,15.31
2023-07-25T21:37:43.965Z,15.22
2023-07-25T22:07:47.652Z,15.41
2023-07-25T22:37:51.163Z,15.12
2023-07-25T23:07:54.183Z,14.72
2023-07-25T23:37:57.868Z,14.73
